sensor_id;sensor_type;location;lat;lon;timestamp;P1;durP1;ratioP1;P2;durP2;ratioP2
20449;SDS011;10384;51.940;8.432;2022-11-15T00:02:12;11.83;;;5.17;;
20449;SDS011;10384;51.940;8.432;2022-11-15T00:04:38;10.67;;;5.37;;
20449;SDS011;10384;51.940;8.432;2022-11-15T00:07:04;10.10;;;5.00;;
20449;SDS011;10384;51.940;8.432;2022-11-15T00:09:30;9.93;;;5.53;;
20449;SDS011;10384;51.940;8.432;2022-11-15T00:11:56;11.33;;;4.90;;
20449;SDS011;10384;51.940;8.432;2022-11-15T00:14:22;10.23;;;4.90;;
20449;SDS011;10384;51.940;8.432;2022-11-15T00:16:48;12.87;;;5.20;;
20449;SDS011;10384;51.940;8.432;2022-11-15T00:19:14;9.27;;;5.07;;
20449;SDS011;10384;51.940;8.432;2022-11-15T00:21:40;9.77;;;5.23;;
20449;SDS011;10384;51.940;8.432;2022-11-15T00:24:06;12.37;;;5.37;;
20449;SDS011;10384;51.940;8.432;2022-11-15T00:26:32;9.87;;;5.03;;
20449;SDS011;10384;51.940;8.432;2022-11-15T00:28:58;8.40;;;4.87;;
20449;SDS011;10384;51.940;8.432;2022-11-15T00:31:24;10.77;;;4.40;;
20449;SDS011;10384;51.940;8.432;2022-11-15T00:33:50;7.97;;;4.63;;
20449;SDS011;10384;51.940;8.432;2022-11-15T00:36:16;10.10;;;4.80;;
20449;SDS011;10384;51.940;8.432;2022-11-15T00:38:42;11.97;;;4.97;;
20449;SDS011;10384;51.940;8.432;2022-11-15T00:41:08;9.20;;;4.80;;
20449;SDS011;10384;51.940;8.432;2022-11-15T00:43:34;8.37;;;4.40;;
20449;SDS011;10384;51.940;8.432;2022-11-15T00:46:00;11.10;;;5.00;;
20449;SDS011;10384;51.940;8.432;2022-11-15T00:48:27;10.83;;;4.93;;
20449;SDS011;10384;51.940;8.432;2022-11-15T00:50:53;9.03;;;4.60;;
20449;SDS011;10384;51.940;8.432;2022-11-15T00:53:19;11.77;;;4.73;;
20449;SDS011;10384;51.940;8.432;2022-11-15T00:55:45;11.47;;;4.93;;
20449;SDS011;10384;51.940;8.432;2022-11-15T00:58:11;8.67;;;4.70;;
20449;SDS011;10384;51.940;8.432;2022-11-15T01:00:37;10.73;;;4.40;;
20449;SDS011;10384;51.940;8.432;2022-11-15T01:03:03;11.17;;;5.33;;
20449;SDS011;10384;51.940;8.432;2022-11-15T01:05:29;9.10;;;4.43;;
20449;SDS011;10384;51.940;8.432;2022-11-15T01:07:55;10.23;;;4.77;;
20449;SDS011;10384;51.940;8.432;2022-11-15T01:10:22;7.67;;;4.33;;
20449;SDS011;10384;51.940;8.432;2022-11-15T01:12:48;9.93;;;4.43;;
20449;SDS011;10384;51.940;8.432;2022-11-15T01:15:14;8.13;;;4.20;;
20449;SDS011;10384;51.940;8.432;2022-11-15T01:17:40;8.10;;;4.43;;
20449;SDS011;10384;51.940;8.432;2022-11-15T01:20:06;8.57;;;4.60;;
20449;SDS011;10384;51.940;8.432;2022-11-15T01:22:32;9.70;;;4.33;;
20449;SDS011;10384;51.940;8.432;2022-11-15T01:24:58;9.00;;;4.23;;
20449;SDS011;10384;51.940;8.432;2022-11-15T01:27:24;8.50;;;4.87;;
20449;SDS011;10384;51.940;8.432;2022-11-15T01:29:50;7.80;;;4.17;;
20449;SDS011;10384;51.940;8.432;2022-11-15T01:32:16;7.83;;;4.20;;
20449;SDS011;10384;51.940;8.432;2022-11-15T01:34:42;9.67;;;4.63;;
20449;SDS011;10384;51.940;8.432;2022-11-15T01:37:08;8.23;;;4.63;;
20449;SDS011;10384;51.940;8.432;2022-11-15T01:39:34;10.13;;;4.60;;
20449;SDS011;10384;51.940;8.432;2022-11-15T01:42:00;9.43;;;4.90;;
20449;SDS011;10384;51.940;8.432;2022-11-15T01:47:21;7.30;;;4.67;;
20449;SDS011;10384;51.940;8.432;2022-11-15T01:49:50;10.27;;;4.47;;
20449;SDS011;10384;51.940;8.432;2022-11-15T01:52:19;10.40;;;4.63;;
20449;SDS011;10384;51.940;8.432;2022-11-15T01:54:47;9.23;;;4.87;;
20449;SDS011;10384;51.940;8.432;2022-11-15T01:57:13;8.73;;;4.57;;
20449;SDS011;10384;51.940;8.432;2022-11-15T01:59:40;10.27;;;5.47;;
20449;SDS011;10384;51.940;8.432;2022-11-15T02:02:08;11.37;;;5.20;;
20449;SDS011;10384;51.940;8.432;2022-11-15T02:04:35;12.87;;;4.67;;
20449;SDS011;10384;51.940;8.432;2022-11-15T02:07:03;11.93;;;4.70;;
20449;SDS011;10384;51.940;8.432;2022-11-15T02:09:30;10.17;;;4.93;;
20449;SDS011;10384;51.940;8.432;2022-11-15T02:11:56;11.47;;;5.20;;
20449;SDS011;10384;51.940;8.432;2022-11-15T02:14:22;9.80;;;4.90;;
20449;SDS011;10384;51.940;8.432;2022-11-15T02:21:46;8.47;;;4.53;;
20449;SDS011;10384;51.940;8.432;2022-11-15T02:32:14;11.17;;;5.23;;
20449;SDS011;10384;51.940;8.432;2022-11-15T02:34:52;11.53;;;5.03;;
20449;SDS011;10384;51.940;8.432;2022-11-15T02:37:30;12.53;;;5.73;;
20449;SDS011;10384;51.940;8.432;2022-11-15T02:40:08;8.87;;;5.23;;
20449;SDS011;10384;51.940;8.432;2022-11-15T02:42:53;12.93;;;5.57;;
20449;SDS011;10384;51.940;8.432;2022-11-15T02:45:46;12.90;;;5.83;;
20449;SDS011;10384;51.940;8.432;2022-11-15T02:48:14;14.67;;;6.77;;
20449;SDS011;10384;51.940;8.432;2022-11-15T02:50:41;12.67;;;6.23;;
20449;SDS011;10384;51.940;8.432;2022-11-15T02:53:08;12.50;;;6.03;;
20449;SDS011;10384;51.940;8.432;2022-11-15T02:55:35;14.37;;;5.87;;
20449;SDS011;10384;51.940;8.432;2022-11-15T03:00:58;11.23;;;5.40;;
20449;SDS011;10384;51.940;8.432;2022-11-15T03:08:56;13.77;;;6.30;;
20449;SDS011;10384;51.940;8.432;2022-11-15T03:11:23;13.63;;;6.03;;
20449;SDS011;10384;51.940;8.432;2022-11-15T03:16:38;11.37;;;5.50;;
20449;SDS011;10384;51.940;8.432;2022-11-15T03:19:08;14.37;;;6.03;;
20449;SDS011;10384;51.940;8.432;2022-11-15T03:21:37;11.60;;;5.67;;
20449;SDS011;10384;51.940;8.432;2022-11-15T03:24:05;11.50;;;5.77;;
20449;SDS011;10384;51.940;8.432;2022-11-15T03:26:32;12.63;;;6.13;;
20449;SDS011;10384;51.940;8.432;2022-11-15T03:29:01;15.70;;;6.07;;
20449;SDS011;10384;51.940;8.432;2022-11-15T03:31:30;11.20;;;5.67;;
20449;SDS011;10384;51.940;8.432;2022-11-15T03:36:57;17.97;;;7.60;;
20449;SDS011;10384;51.940;8.432;2022-11-15T03:39:23;10.90;;;6.00;;
20449;SDS011;10384;51.940;8.432;2022-11-15T03:41:53;16.40;;;6.13;;
20449;SDS011;10384;51.940;8.432;2022-11-15T03:44:27;15.00;;;6.90;;
20449;SDS011;10384;51.940;8.432;2022-11-15T03:49:38;14.60;;;6.40;;
20449;SDS011;10384;51.940;8.432;2022-11-15T03:52:06;16.33;;;6.83;;
20449;SDS011;10384;51.940;8.432;2022-11-15T03:54:32;12.93;;;6.17;;
20449;SDS011;10384;51.940;8.432;2022-11-15T03:56:58;17.93;;;7.63;;
20449;SDS011;10384;51.940;8.432;2022-11-15T03:59:24;17.73;;;6.63;;
20449;SDS011;10384;51.940;8.432;2022-11-15T04:01:50;13.70;;;6.20;;
20449;SDS011;10384;51.940;8.432;2022-11-15T04:04:16;13.47;;;6.47;;
20449;SDS011;10384;51.940;8.432;2022-11-15T04:06:42;14.63;;;7.10;;
20449;SDS011;10384;51.940;8.432;2022-11-15T04:09:08;13.20;;;6.40;;
20449;SDS011;10384;51.940;8.432;2022-11-15T04:11:37;13.40;;;6.20;;
20449;SDS011;10384;51.940;8.432;2022-11-15T04:14:03;12.90;;;6.23;;
20449;SDS011;10384;51.940;8.432;2022-11-15T04:16:29;15.23;;;7.53;;
20449;SDS011;10384;51.940;8.432;2022-11-15T04:18:57;12.80;;;6.70;;
20449;SDS011;10384;51.940;8.432;2022-11-15T04:21:42;15.97;;;7.00;;
20449;SDS011;10384;51.940;8.432;2022-11-15T04:24:26;15.93;;;7.13;;
20449;SDS011;10384;51.940;8.432;2022-11-15T04:26:52;14.27;;;7.23;;
20449;SDS011;10384;51.940;8.432;2022-11-15T04:29:18;15.23;;;7.23;;
20449;SDS011;10384;51.940;8.432;2022-11-15T04:32:00;14.80;;;7.07;;
20449;SDS011;10384;51.940;8.432;2022-11-15T04:34:26;12.87;;;7.23;;
20449;SDS011;10384;51.940;8.432;2022-11-15T04:36:52;17.73;;;7.90;;
20449;SDS011;10384;51.940;8.432;2022-11-15T04:39:36;17.13;;;8.23;;
20449;SDS011;10384;51.940;8.432;2022-11-15T04:42:02;13.03;;;6.90;;
20449;SDS011;10384;51.940;8.432;2022-11-15T04:44:28;13.60;;;7.63;;
20449;SDS011;10384;51.940;8.432;2022-11-15T04:46:54;14.00;;;7.27;;
20449;SDS011;10384;51.940;8.432;2022-11-15T04:49:20;15.97;;;6.90;;
20449;SDS011;10384;51.940;8.432;2022-11-15T04:51:46;15.27;;;7.50;;
20449;SDS011;10384;51.940;8.432;2022-11-15T04:54:12;19.50;;;8.30;;
20449;SDS011;10384;51.940;8.432;2022-11-15T04:56:38;14.73;;;7.23;;
20449;SDS011;10384;51.940;8.432;2022-11-15T04:59:04;15.57;;;7.17;;
20449;SDS011;10384;51.940;8.432;2022-11-15T05:01:30;16.80;;;7.20;;
20449;SDS011;10384;51.940;8.432;2022-11-15T05:03:57;16.87;;;7.57;;
20449;SDS011;10384;51.940;8.432;2022-11-15T05:06:41;16.57;;;7.20;;
20449;SDS011;10384;51.940;8.432;2022-11-15T05:09:10;14.60;;;7.43;;
20449;SDS011;10384;51.940;8.432;2022-11-15T05:11:38;18.67;;;7.57;;
20449;SDS011;10384;51.940;8.432;2022-11-15T05:14:04;15.10;;;7.53;;
20449;SDS011;10384;51.940;8.432;2022-11-15T05:16:30;17.33;;;6.87;;
20449;SDS011;10384;51.940;8.432;2022-11-15T05:18:55;14.23;;;7.57;;
20449;SDS011;10384;51.940;8.432;2022-11-15T05:21:21;16.77;;;7.33;;
20449;SDS011;10384;51.940;8.432;2022-11-15T05:23:47;17.07;;;7.53;;
20449;SDS011;10384;51.940;8.432;2022-11-15T05:26:16;14.07;;;7.20;;
20449;SDS011;10384;51.940;8.432;2022-11-15T05:28:43;13.97;;;7.10;;
20449;SDS011;10384;51.940;8.432;2022-11-15T05:31:10;16.33;;;6.80;;
20449;SDS011;10384;51.940;8.432;2022-11-15T05:33:36;17.00;;;7.63;;
20449;SDS011;10384;51.940;8.432;2022-11-15T05:36:17;14.77;;;7.37;;
20449;SDS011;10384;51.940;8.432;2022-11-15T05:38:43;16.57;;;7.27;;
20449;SDS011;10384;51.940;8.432;2022-11-15T05:41:09;13.53;;;6.97;;
20449;SDS011;10384;51.940;8.432;2022-11-15T05:43:36;15.47;;;7.17;;
20449;SDS011;10384;51.940;8.432;2022-11-15T05:46:03;16.37;;;7.70;;
20449;SDS011;10384;51.940;8.432;2022-11-15T05:48:30;14.07;;;6.97;;
20449;SDS011;10384;51.940;8.432;2022-11-15T05:50:56;15.30;;;7.87;;
20449;SDS011;10384;51.940;8.432;2022-11-15T05:53:22;14.07;;;7.10;;
20449;SDS011;10384;51.940;8.432;2022-11-15T05:55:50;16.90;;;7.27;;
20449;SDS011;10384;51.940;8.432;2022-11-15T05:58:16;17.37;;;7.43;;
20449;SDS011;10384;51.940;8.432;2022-11-15T06:00:43;16.47;;;7.83;;
20449;SDS011;10384;51.940;8.432;2022-11-15T06:03:09;16.40;;;7.07;;
20449;SDS011;10384;51.940;8.432;2022-11-15T06:05:35;14.63;;;7.50;;
20449;SDS011;10384;51.940;8.432;2022-11-15T06:08:01;15.87;;;7.33;;
20449;SDS011;10384;51.940;8.432;2022-11-15T06:10:27;14.90;;;7.20;;
20449;SDS011;10384;51.940;8.432;2022-11-15T06:12:59;14.37;;;6.67;;
20449;SDS011;10384;51.940;8.432;2022-11-15T06:15:25;14.57;;;6.87;;
20449;SDS011;10384;51.940;8.432;2022-11-15T06:17:51;15.83;;;6.67;;
20449;SDS011;10384;51.940;8.432;2022-11-15T06:20:22;17.67;;;7.07;;
20449;SDS011;10384;51.940;8.432;2022-11-15T06:22:48;15.00;;;7.83;;
20449;SDS011;10384;51.940;8.432;2022-11-15T06:25:14;14.97;;;6.43;;
20449;SDS011;10384;51.940;8.432;2022-11-15T06:27:40;14.00;;;6.70;;
20449;SDS011;10384;51.940;8.432;2022-11-15T06:30:06;12.13;;;6.30;;
20449;SDS011;10384;51.940;8.432;2022-11-15T06:32:32;10.77;;;6.20;;
20449;SDS011;10384;51.940;8.432;2022-11-15T06:34:58;15.63;;;5.97;;
20449;SDS011;10384;51.940;8.432;2022-11-15T06:37:24;15.80;;;6.53;;
20449;SDS011;10384;51.940;8.432;2022-11-15T06:39:50;13.93;;;6.13;;
20449;SDS011;10384;51.940;8.432;2022-11-15T06:42:16;15.23;;;7.33;;
20449;SDS011;10384;51.940;8.432;2022-11-15T06:44:42;11.20;;;6.00;;
20449;SDS011;10384;51.940;8.432;2022-11-15T06:47:08;12.60;;;5.97;;
20449;SDS011;10384;51.940;8.432;2022-11-15T06:49:34;11.07;;;5.80;;
20449;SDS011;10384;51.940;8.432;2022-11-15T06:51:59;11.93;;;6.27;;
20449;SDS011;10384;51.940;8.432;2022-11-15T06:54:25;15.30;;;6.90;;
20449;SDS011;10384;51.940;8.432;2022-11-15T06:56:51;13.13;;;6.13;;
20449;SDS011;10384;51.940;8.432;2022-11-15T06:59:17;14.53;;;6.70;;
20449;SDS011;10384;51.940;8.432;2022-11-15T07:01:43;13.80;;;6.40;;
20449;SDS011;10384;51.940;8.432;2022-11-15T07:04:09;13.57;;;6.57;;
20449;SDS011;10384;51.940;8.432;2022-11-15T07:06:35;11.30;;;6.33;;
20449;SDS011;10384;51.940;8.432;2022-11-15T07:09:02;15.10;;;7.00;;
20449;SDS011;10384;51.940;8.432;2022-11-15T07:11:28;16.23;;;6.97;;
20449;SDS011;10384;51.940;8.432;2022-11-15T07:13:54;13.87;;;6.20;;
20449;SDS011;10384;51.940;8.432;2022-11-15T07:16:20;12.13;;;5.73;;
20449;SDS011;10384;51.940;8.432;2022-11-15T07:18:46;12.43;;;5.87;;
20449;SDS011;10384;51.940;8.432;2022-11-15T07:21:12;13.13;;;6.10;;
20449;SDS011;10384;51.940;8.432;2022-11-15T07:23:38;13.87;;;5.93;;
20449;SDS011;10384;51.940;8.432;2022-11-15T07:26:04;15.23;;;6.57;;
20449;SDS011;10384;51.940;8.432;2022-11-15T07:28:30;12.33;;;6.07;;
20449;SDS011;10384;51.940;8.432;2022-11-15T07:30:56;13.33;;;6.00;;
20449;SDS011;10384;51.940;8.432;2022-11-15T07:33:22;14.63;;;6.47;;
20449;SDS011;10384;51.940;8.432;2022-11-15T07:35:49;14.20;;;6.17;;
20449;SDS011;10384;51.940;8.432;2022-11-15T07:38:15;12.80;;;6.07;;
20449;SDS011;10384;51.940;8.432;2022-11-15T07:40:44;13.73;;;5.90;;
20449;SDS011;10384;51.940;8.432;2022-11-15T07:43:11;15.90;;;6.00;;
20449;SDS011;10384;51.940;8.432;2022-11-15T07:45:41;14.53;;;6.40;;
20449;SDS011;10384;51.940;8.432;2022-11-15T07:48:07;11.97;;;5.73;;
20449;SDS011;10384;51.940;8.432;2022-11-15T07:50:33;11.40;;;5.87;;
20449;SDS011;10384;51.940;8.432;2022-11-15T07:52:59;12.20;;;5.73;;
20449;SDS011;10384;51.940;8.432;2022-11-15T07:55:26;11.00;;;5.43;;
20449;SDS011;10384;51.940;8.432;2022-11-15T07:57:59;10.13;;;5.40;;
20449;SDS011;10384;51.940;8.432;2022-11-15T08:00:25;12.00;;;5.50;;
20449;SDS011;10384;51.940;8.432;2022-11-15T08:02:51;13.07;;;5.43;;
20449;SDS011;10384;51.940;8.432;2022-11-15T08:05:17;9.90;;;5.33;;
20449;SDS011;10384;51.940;8.432;2022-11-15T08:07:43;10.60;;;4.87;;
20449;SDS011;10384;51.940;8.432;2022-11-15T08:10:09;10.97;;;5.63;;
20449;SDS011;10384;51.940;8.432;2022-11-15T08:12:36;12.90;;;5.17;;
20449;SDS011;10384;51.940;8.432;2022-11-15T08:15:03;13.40;;;5.40;;
20449;SDS011;10384;51.940;8.432;2022-11-15T08:17:29;8.37;;;4.73;;
20449;SDS011;10384;51.940;8.432;2022-11-15T08:19:57;10.47;;;5.10;;
20449;SDS011;10384;51.940;8.432;2022-11-15T08:22:23;10.50;;;5.33;;
20449;SDS011;10384;51.940;8.432;2022-11-15T08:24:49;9.73;;;4.90;;
20449;SDS011;10384;51.940;8.432;2022-11-15T08:27:15;10.23;;;5.10;;
20449;SDS011;10384;51.940;8.432;2022-11-15T08:29:42;10.87;;;5.20;;
20449;SDS011;10384;51.940;8.432;2022-11-15T08:32:08;9.63;;;4.70;;
20449;SDS011;10384;51.940;8.432;2022-11-15T08:34:34;10.20;;;4.63;;
20449;SDS011;10384;51.940;8.432;2022-11-15T08:37:00;10.40;;;5.00;;
20449;SDS011;10384;51.940;8.432;2022-11-15T08:39:26;8.53;;;4.37;;
20449;SDS011;10384;51.940;8.432;2022-11-15T08:41:52;8.83;;;4.40;;
20449;SDS011;10384;51.940;8.432;2022-11-15T08:44:18;8.27;;;4.20;;
20449;SDS011;10384;51.940;8.432;2022-11-15T08:46:45;7.43;;;3.63;;
20449;SDS011;10384;51.940;8.432;2022-11-15T08:49:11;9.87;;;3.27;;
20449;SDS011;10384;51.940;8.432;2022-11-15T08:51:37;8.87;;;3.50;;
20449;SDS011;10384;51.940;8.432;2022-11-15T08:54:03;5.73;;;3.20;;
20449;SDS011;10384;51.940;8.432;2022-11-15T08:56:29;6.40;;;3.10;;
20449;SDS011;10384;51.940;8.432;2022-11-15T08:58:55;6.93;;;3.20;;
20449;SDS011;10384;51.940;8.432;2022-11-15T09:01:21;3.90;;;2.57;;
20449;SDS011;10384;51.940;8.432;2022-11-15T09:03:47;4.97;;;2.50;;
20449;SDS011;10384;51.940;8.432;2022-11-15T09:06:13;4.47;;;2.70;;
20449;SDS011;10384;51.940;8.432;2022-11-15T09:08:40;4.90;;;2.60;;
20449;SDS011;10384;51.940;8.432;2022-11-15T09:11:06;5.57;;;2.30;;
20449;SDS011;10384;51.940;8.432;2022-11-15T09:13:33;3.57;;;2.20;;
20449;SDS011;10384;51.940;8.432;2022-11-15T09:15:59;3.00;;;2.23;;
20449;SDS011;10384;51.940;8.432;2022-11-15T09:18:25;3.63;;;2.13;;
20449;SDS011;10384;51.940;8.432;2022-11-15T09:20:54;2.97;;;2.00;;
20449;SDS011;10384;51.940;8.432;2022-11-15T09:23:21;3.97;;;2.20;;
20449;SDS011;10384;51.940;8.432;2022-11-15T09:25:47;5.27;;;2.33;;
20449;SDS011;10384;51.940;8.432;2022-11-15T09:28:13;3.40;;;2.03;;
20449;SDS011;10384;51.940;8.432;2022-11-15T09:30:39;3.93;;;2.10;;
20449;SDS011;10384;51.940;8.432;2022-11-15T09:33:08;3.90;;;2.10;;
20449;SDS011;10384;51.940;8.432;2022-11-15T09:35:34;3.40;;;1.83;;
20449;SDS011;10384;51.940;8.432;2022-11-15T09:38:01;3.23;;;1.93;;
20449;SDS011;10384;51.940;8.432;2022-11-15T09:40:27;2.77;;;1.80;;
20449;SDS011;10384;51.940;8.432;2022-11-15T09:48:30;4.03;;;2.13;;
20449;SDS011;10384;51.940;8.432;2022-11-15T09:50:59;2.37;;;1.50;;
20449;SDS011;10384;51.940;8.432;2022-11-15T09:55:58;2.83;;;1.47;;
20449;SDS011;10384;51.940;8.432;2022-11-15T10:00:57;2.50;;;1.30;;
20449;SDS011;10384;51.940;8.432;2022-11-15T10:03:27;1.87;;;1.30;;
20449;SDS011;10384;51.940;8.432;2022-11-15T10:05:56;2.00;;;1.50;;
20449;SDS011;10384;51.940;8.432;2022-11-15T10:11:08;3.47;;;1.30;;
20449;SDS011;10384;51.940;8.432;2022-11-15T10:13:35;2.33;;;1.17;;
20449;SDS011;10384;51.940;8.432;2022-11-15T10:16:17;4.03;;;1.20;;
20449;SDS011;10384;51.940;8.432;2022-11-15T10:21:25;2.90;;;1.17;;
20449;SDS011;10384;51.940;8.432;2022-11-15T10:23:52;1.27;;;1.13;;
20449;SDS011;10384;51.940;8.432;2022-11-15T10:26:19;1.40;;;0.90;;
20449;SDS011;10384;51.940;8.432;2022-11-15T10:28:45;1.23;;;1.00;;
20449;SDS011;10384;51.940;8.432;2022-11-15T10:31:21;1.93;;;1.17;;
20449;SDS011;10384;51.940;8.432;2022-11-15T10:33:48;3.37;;;1.00;;
20449;SDS011;10384;51.940;8.432;2022-11-15T10:36:14;1.93;;;1.30;;
20449;SDS011;10384;51.940;8.432;2022-11-15T10:46:32;3.57;;;1.20;;
20449;SDS011;10384;51.940;8.432;2022-11-15T10:49:21;1.30;;;0.93;;
20449;SDS011;10384;51.940;8.432;2022-11-15T10:54:27;1.20;;;1.10;;
20449;SDS011;10384;51.940;8.432;2022-11-15T10:56:55;1.70;;;1.00;;
20449;SDS011;10384;51.940;8.432;2022-11-15T10:59:26;3.03;;;1.10;;
20449;SDS011;10384;51.940;8.432;2022-11-15T11:01:52;1.93;;;1.30;;
20449;SDS011;10384;51.940;8.432;2022-11-15T11:04:18;5.87;;;1.43;;
20449;SDS011;10384;51.940;8.432;2022-11-15T11:06:48;1.40;;;1.00;;
20449;SDS011;10384;51.940;8.432;2022-11-15T11:09:34;1.97;;;1.20;;
20449;SDS011;10384;51.940;8.432;2022-11-15T11:12:01;3.73;;;1.40;;
20449;SDS011;10384;51.940;8.432;2022-11-15T11:14:28;3.37;;;1.20;;
20449;SDS011;10384;51.940;8.432;2022-11-15T11:19:30;2.90;;;1.50;;
20449;SDS011;10384;51.940;8.432;2022-11-15T11:22:05;6.33;;;1.60;;
20449;SDS011;10384;51.940;8.432;2022-11-15T11:24:44;2.60;;;1.13;;
20449;SDS011;10384;51.940;8.432;2022-11-15T11:35:20;3.10;;;1.40;;
20449;SDS011;10384;51.940;8.432;2022-11-15T11:38:03;2.97;;;1.27;;
20449;SDS011;10384;51.940;8.432;2022-11-15T11:43:24;4.27;;;1.50;;
20449;SDS011;10384;51.940;8.432;2022-11-15T11:46:01;2.40;;;1.53;;
20449;SDS011;10384;51.940;8.432;2022-11-15T11:51:08;2.30;;;1.30;;
20449;SDS011;10384;51.940;8.432;2022-11-15T11:53:40;1.30;;;1.20;;
20449;SDS011;10384;51.940;8.432;2022-11-15T11:56:14;2.83;;;1.03;;
20449;SDS011;10384;51.940;8.432;2022-11-15T11:58:43;1.70;;;1.30;;
20449;SDS011;10384;51.940;8.432;2022-11-15T12:03:55;2.33;;;1.70;;
20449;SDS011;10384;51.940;8.432;2022-11-15T12:06:31;3.07;;;1.87;;
20449;SDS011;10384;51.940;8.432;2022-11-15T12:09:04;1.90;;;1.23;;
20449;SDS011;10384;51.940;8.432;2022-11-15T12:11:37;2.77;;;1.50;;
20449;SDS011;10384;51.940;8.432;2022-11-15T12:14:05;2.10;;;1.43;;
20449;SDS011;10384;51.940;8.432;2022-11-15T12:16:35;4.77;;;1.70;;
20449;SDS011;10384;51.940;8.432;2022-11-15T12:19:04;2.40;;;1.30;;
20449;SDS011;10384;51.940;8.432;2022-11-15T12:21:39;1.70;;;1.43;;
20449;SDS011;10384;51.940;8.432;2022-11-15T12:24:16;3.33;;;1.30;;
20449;SDS011;10384;51.940;8.432;2022-11-15T12:26:49;2.40;;;1.50;;
20449;SDS011;10384;51.940;8.432;2022-11-15T12:29:19;2.10;;;1.33;;
20449;SDS011;10384;51.940;8.432;2022-11-15T12:31:48;2.20;;;1.20;;
20449;SDS011;10384;51.940;8.432;2022-11-15T12:34:28;2.17;;;1.20;;
20449;SDS011;10384;51.940;8.432;2022-11-15T12:36:55;3.23;;;1.27;;
20449;SDS011;10384;51.940;8.432;2022-11-15T12:39:21;1.47;;;1.37;;
20449;SDS011;10384;51.940;8.432;2022-11-15T12:47:01;1.77;;;1.27;;
20449;SDS011;10384;51.940;8.432;2022-11-15T13:02:18;1.50;;;1.20;;
20449;SDS011;10384;51.940;8.432;2022-11-15T13:04:46;2.03;;;1.40;;
20449;SDS011;10384;51.940;8.432;2022-11-15T13:07:55;1.87;;;1.30;;
20449;SDS011;10384;51.940;8.432;2022-11-15T13:09:57;1.80;;;1.33;;
20449;SDS011;10384;51.940;8.432;2022-11-15T13:14:53;5.20;;;1.17;;
20449;SDS011;10384;51.940;8.432;2022-11-15T13:19:46;1.53;;;1.10;;
20449;SDS011;10384;51.940;8.432;2022-11-15T13:22:13;1.20;;;1.00;;
20449;SDS011;10384;51.940;8.432;2022-11-15T13:25:01;1.83;;;1.13;;
20449;SDS011;10384;51.940;8.432;2022-11-15T13:27:27;3.60;;;1.00;;
20449;SDS011;10384;51.940;8.432;2022-11-15T13:29:53;1.60;;;1.13;;
20449;SDS011;10384;51.940;8.432;2022-11-15T13:32:19;1.73;;;0.97;;
20449;SDS011;10384;51.940;8.432;2022-11-15T13:34:46;2.60;;;0.90;;
20449;SDS011;10384;51.940;8.432;2022-11-15T13:37:33;1.00;;;0.83;;
20449;SDS011;10384;51.940;8.432;2022-11-15T13:42:44;1.13;;;0.87;;
20449;SDS011;10384;51.940;8.432;2022-11-15T13:45:11;1.30;;;0.97;;
20449;SDS011;10384;51.940;8.432;2022-11-15T13:47:38;1.83;;;0.80;;
20449;SDS011;10384;51.940;8.432;2022-11-15T13:50:10;4.40;;;1.10;;
20449;SDS011;10384;51.940;8.432;2022-11-15T13:52:36;1.97;;;1.13;;
20449;SDS011;10384;51.940;8.432;2022-11-15T13:55:14;1.40;;;1.00;;
20449;SDS011;10384;51.940;8.432;2022-11-15T13:57:42;5.43;;;1.40;;
20449;SDS011;10384;51.940;8.432;2022-11-15T14:02:55;2.57;;;1.10;;
20449;SDS011;10384;51.940;8.432;2022-11-15T14:05:22;3.10;;;1.03;;
20449;SDS011;10384;51.940;8.432;2022-11-15T14:08:02;1.40;;;1.00;;
20449;SDS011;10384;51.940;8.432;2022-11-15T14:10:32;1.80;;;0.90;;
20449;SDS011;10384;51.940;8.432;2022-11-15T14:12:59;1.30;;;1.10;;
20449;SDS011;10384;51.940;8.432;2022-11-15T14:17:55;1.17;;;0.90;;
20449;SDS011;10384;51.940;8.432;2022-11-15T14:20:28;2.30;;;1.00;;
20449;SDS011;10384;51.940;8.432;2022-11-15T14:22:56;3.00;;;0.87;;
20449;SDS011;10384;51.940;8.432;2022-11-15T14:25:26;1.40;;;0.80;;
20449;SDS011;10384;51.940;8.432;2022-11-15T14:30:38;1.13;;;0.87;;
20449;SDS011;10384;51.940;8.432;2022-11-15T14:35:46;6.10;;;1.13;;
20449;SDS011;10384;51.940;8.432;2022-11-15T14:38:12;2.17;;;1.00;;
20449;SDS011;10384;51.940;8.432;2022-11-15T14:40:38;1.40;;;1.23;;
20449;SDS011;10384;51.940;8.432;2022-11-15T14:43:07;2.23;;;1.00;;
20449;SDS011;10384;51.940;8.432;2022-11-15T14:45:33;1.10;;;1.00;;
20449;SDS011;10384;51.940;8.432;2022-11-15T14:48:00;1.33;;;0.90;;
20449;SDS011;10384;51.940;8.432;2022-11-15T14:50:26;1.63;;;1.10;;
20449;SDS011;10384;51.940;8.432;2022-11-15T14:52:53;2.57;;;1.00;;
20449;SDS011;10384;51.940;8.432;2022-11-15T14:55:23;1.20;;;0.83;;
20449;SDS011;10384;51.940;8.432;2022-11-15T14:57:50;2.50;;;1.10;;
20449;SDS011;10384;51.940;8.432;2022-11-15T15:00:17;3.43;;;1.10;;
20449;SDS011;10384;51.940;8.432;2022-11-15T15:02:44;1.80;;;1.00;;
20449;SDS011;10384;51.940;8.432;2022-11-15T15:07:39;2.33;;;1.10;;
20449;SDS011;10384;51.940;8.432;2022-11-15T15:10:05;5.37;;;1.27;;
20449;SDS011;10384;51.940;8.432;2022-11-15T15:12:31;1.50;;;0.80;;
20449;SDS011;10384;51.940;8.432;2022-11-15T15:14:57;2.17;;;0.90;;
20449;SDS011;10384;51.940;8.432;2022-11-15T15:17:22;1.70;;;0.90;;
20449;SDS011;10384;51.940;8.432;2022-11-15T15:19:48;2.63;;;0.90;;
20449;SDS011;10384;51.940;8.432;2022-11-15T15:22:15;6.13;;;1.30;;
20449;SDS011;10384;51.940;8.432;2022-11-15T15:24:42;2.70;;;1.20;;
20449;SDS011;10384;51.940;8.432;2022-11-15T15:27:08;2.30;;;1.20;;
20449;SDS011;10384;51.940;8.432;2022-11-15T15:29:34;3.47;;;1.50;;
20449;SDS011;10384;51.940;8.432;2022-11-15T15:32:00;1.80;;;1.10;;
20449;SDS011;10384;51.940;8.432;2022-11-15T15:34:26;2.90;;;1.50;;
20449;SDS011;10384;51.940;8.432;2022-11-15T15:39:37;2.67;;;1.80;;
20449;SDS011;10384;51.940;8.432;2022-11-15T15:42:03;5.30;;;1.70;;
20449;SDS011;10384;51.940;8.432;2022-11-15T15:44:29;4.53;;;2.50;;
20449;SDS011;10384;51.940;8.432;2022-11-15T15:46:55;2.70;;;1.60;;
20449;SDS011;10384;51.940;8.432;2022-11-15T15:49:22;4.77;;;1.77;;
20449;SDS011;10384;51.940;8.432;2022-11-15T15:51:49;3.23;;;1.70;;
20449;SDS011;10384;51.940;8.432;2022-11-15T15:54:15;4.83;;;1.97;;
20449;SDS011;10384;51.940;8.432;2022-11-15T15:56:41;3.90;;;1.80;;
20449;SDS011;10384;51.940;8.432;2022-11-15T15:59:07;38.77;;;4.50;;
20449;SDS011;10384;51.940;8.432;2022-11-15T16:01:32;3.87;;;1.90;;
20449;SDS011;10384;51.940;8.432;2022-11-15T16:03:58;4.73;;;1.90;;
20449;SDS011;10384;51.940;8.432;2022-11-15T16:06:37;5.20;;;2.50;;
20449;SDS011;10384;51.940;8.432;2022-11-15T16:09:05;10.50;;;2.77;;
20449;SDS011;10384;51.940;8.432;2022-11-15T16:11:31;7.20;;;3.00;;
20449;SDS011;10384;51.940;8.432;2022-11-15T16:13:57;10.77;;;3.47;;
20449;SDS011;10384;51.940;8.432;2022-11-15T16:16:23;10.50;;;3.80;;
20449;SDS011;10384;51.940;8.432;2022-11-15T16:18:49;7.67;;;2.83;;
20449;SDS011;10384;51.940;8.432;2022-11-15T16:21:15;6.73;;;3.07;;
20449;SDS011;10384;51.940;8.432;2022-11-15T16:23:41;4.07;;;2.10;;
20449;SDS011;10384;51.940;8.432;2022-11-15T16:26:20;4.63;;;2.10;;
20449;SDS011;10384;51.940;8.432;2022-11-15T16:28:47;3.40;;;1.93;;
20449;SDS011;10384;51.940;8.432;2022-11-15T16:31:13;5.53;;;3.03;;
20449;SDS011;10384;51.940;8.432;2022-11-15T16:33:39;2.63;;;1.63;;
20449;SDS011;10384;51.940;8.432;2022-11-15T16:36:10;2.57;;;1.50;;
20449;SDS011;10384;51.940;8.432;2022-11-15T16:38:38;3.00;;;1.87;;
20449;SDS011;10384;51.940;8.432;2022-11-15T16:41:04;2.73;;;1.60;;
20449;SDS011;10384;51.940;8.432;2022-11-15T16:43:30;4.67;;;2.00;;
20449;SDS011;10384;51.940;8.432;2022-11-15T16:45:56;3.13;;;1.80;;